createdAt,value
2022-09-26T00:02:42.281Z,12.56
2022-09-26T00:05:46.633Z,12.51
2022-09-26T00:08:52.491Z,12.47
2022-09-26T00:11:57.118Z,12.52
2022-09-26T00:15:01.623Z,12.44
2022-09-26T00:18:07.660Z,12.36
2022-09-26T00:21:14.234Z,12.46
2022-09-26T00:24:18.992Z,12.49
2022-09-26T00:27:23.022Z,12.53
2022-09-26T00:30:28.044Z,12.53
2022-09-26T00:33:33.936Z,12.51
2022-09-26T00:36:39.060Z,12.58
2022-09-26T00:39:43.172Z,12.58
2022-09-26T00:42:47.423Z,12.53
2022-09-26T00:45:51.630Z,12.58
2022-09-26T00:49:07.472Z,12.59
2022-09-26T00:52:16.279Z,12.63
2022-09-26T00:55:24.980Z,12.64
2022-09-26T00:58:33.299Z,12.56
2022-09-26T01:01:38.103Z,12.55
2022-09-26T01:04:44.283Z,12.57
2022-09-26T01:07:49.479Z,12.60
2022-09-26T01:10:53.730Z,12.58
2022-09-26T01:13:58.889Z,12.43
2022-09-26T01:17:03.617Z,12.48
2022-09-26T01:20:34.849Z,12.54
2022-09-26T01:24:24.802Z,12.39
2022-09-26T01:27:48.930Z,12.46
2022-09-26T01:31:00.174Z,12.36
2022-09-26T01:34:10.671Z,12.44
2022-09-26T01:37:23.759Z,12.38
2022-09-26T01:40:34.760Z,12.39
2022-09-26T01:43:45.810Z,12.46
2022-09-26T01:46:53.782Z,12.49
2022-09-26T01:50:03.526Z,12.45
2022-09-26T01:53:11.431Z,12.46
2022-09-26T01:56:21.254Z,12.43
2022-09-26T01:59:28.683Z,12.34
2022-09-26T02:02:41.456Z,12.29
2022-09-26T02:05:49.671Z,12.28
2022-09-26T02:08:58.157Z,12.31
2022-09-26T02:12:07.132Z,12.47
2022-09-26T02:15:16.579Z,12.41
2022-09-26T02:18:25.354Z,12.28
2022-09-26T02:21:29.937Z,12.37
2022-09-26T02:24:34.054Z,12.32
2022-09-26T02:27:38.556Z,12.31
2022-09-26T02:30:46.741Z,12.31
2022-09-26T02:33:55.031Z,12.40
2022-09-26T02:37:02.781Z,12.27
2022-09-26T02:40:12.435Z,12.31
2022-09-26T02:43:45.771Z,12.37
2022-09-26T02:47:26.923Z,12.34
2022-09-26T02:50:52.702Z,12.30
2022-09-26T02:54:18.118Z,12.38
2022-09-26T02:57:33.591Z,12.31
2022-09-26T03:00:54.489Z,12.26
2022-09-26T03:04:04.834Z,12.28
2022-09-26T03:07:16.287Z,12.27
2022-09-26T03:10:21.342Z,12.24
2022-09-26T03:13:26.474Z,12.21
2022-09-26T03:16:36.077Z,12.19
2022-09-26T03:19:46.520Z,12.11
2022-09-26T03:22:52.533Z,12.09
2022-09-26T03:26:02.822Z,12.19
2022-09-26T03:29:09.367Z,12.08
2022-09-26T03:32:14.188Z,12.23
2022-09-26T03:35:19.064Z,12.24
2022-09-26T03:38:24.873Z,12.18
2022-09-26T03:41:39.479Z,12.15
2022-09-26T03:44:58.141Z,12.15
2022-09-26T03:48:06.346Z,12.13
2022-09-26T03:51:13.971Z,12.09
2022-09-26T03:54:19.842Z,12.09
2022-09-26T03:57:25.550Z,12.10
2022-09-26T04:00:48.285Z,12.09
2022-09-26T04:03:52.494Z,12.04
2022-09-26T04:06:57.064Z,12.12
2022-09-26T04:10:05.811Z,12.16
2022-09-26T04:13:39.831Z,12.12
2022-09-26T04:16:39.713Z,12.21
2022-09-26T04:19:57.355Z,12.07
2022-09-26T04:23:01.463Z,12.12
2022-09-26T04:26:08.904Z,12.04
2022-09-26T04:29:14.097Z,12.09
2022-09-26T04:32:50.608Z,12.11
2022-09-26T04:36:22.013Z,12.07
2022-09-26T04:39:26.852Z,12.00
2022-09-26T04:42:36.988Z,11.99
2022-09-26T04:45:43.412Z,11.92
2022-09-26T04:48:49.094Z,12.01
2022-09-26T04:51:55.996Z,12.02
2022-09-26T04:55:01.255Z,12.00
2022-09-26T04:58:07.152Z,11.98
2022-09-26T05:01:13.536Z,12.01
2022-09-26T05:04:40.827Z,11.99
2022-09-26T05:07:45.293Z,12.03
2022-09-26T05:10:55.019Z,11.99
2022-09-26T05:14:02.762Z,11.92
2022-09-26T05:17:07.660Z,11.97
2022-09-26T05:20:12.946Z,11.97
2022-09-26T05:23:45.405Z,12.05
2022-09-26T05:26:53.538Z,12.02
2022-09-26T05:29:59.682Z,11.95
2022-09-26T05:33:05.365Z,12.01
2022-09-26T05:36:11.554Z,12.03
2022-09-26T05:39:33.542Z,12.11
2022-09-26T05:42:38.263Z,12.13
2022-09-26T05:45:44.401Z,12.07
2022-09-26T05:48:50.533Z,12.12
2022-09-26T05:51:58.752Z,12.17
2022-09-26T05:55:03.035Z,12.16
2022-09-26T05:58:25.267Z,12.20
2022-09-26T06:02:03.107Z,12.20
2022-09-26T06:05:26.810Z,12.29
2022-09-26T06:08:34.350Z,12.39
2022-09-26T06:11:51.271Z,12.45
2022-09-26T06:14:55.850Z,12.52
2022-09-26T06:18:04.776Z,12.58
2022-09-26T06:21:13.262Z,12.51
2022-09-26T06:24:20.509Z,12.59
2022-09-26T06:27:28.578Z,12.63
2022-09-26T06:30:33.201Z,12.64
2022-09-26T06:34:01.579Z,12.61
2022-09-26T06:37:24.015Z,12.53
2022-09-26T06:40:29.107Z,12.57
2022-09-26T06:43:33.872Z,12.54
2022-09-26T06:47:05.978Z,12.51
2022-09-26T06:50:16.688Z,12.39
2022-09-26T06:53:26.385Z,12.38
2022-09-26T06:56:31.532Z,12.38
2022-09-26T06:59:36.042Z,12.43
2022-09-26T07:02:52.405Z,12.26
2022-09-26T07:06:05.882Z,12.29
2022-09-26T07:09:12.715Z,12.30
2022-09-26T07:12:24.062Z,12.38
2022-09-26T07:15:30.979Z,12.50
2022-09-26T07:18:36.480Z,12.52
2022-09-26T07:22:00.755Z,12.48
2022-09-26T07:25:12.621Z,12.53
2022-09-26T07:28:17.951Z,12.59
2022-09-26T07:31:26.963Z,12.56
2022-09-26T07:34:43.959Z,12.65
2022-09-26T07:37:54.237Z,12.72
2022-09-26T07:41:01.230Z,12.65
2022-09-26T07:47:51.519Z,12.58
2022-09-26T07:51:27.941Z,12.61
2022-09-26T07:54:35.224Z,12.65
2022-09-26T07:58:14.927Z,12.71
2022-09-26T08:01:33.431Z,12.72
2022-09-26T08:04:38.074Z,12.79
2022-09-26T08:07:42.395Z,12.75
2022-09-26T08:10:52.859Z,12.80
2022-09-26T08:14:15.814Z,12.90
2022-09-26T08:17:33.373Z,13.03
2022-09-26T08:20:37.839Z,13.03
2022-09-26T08:23:42.466Z,13.05
2022-09-26T08:27:10.840Z,12.93
2022-09-26T08:30:19.326Z,12.93
2022-09-26T08:33:25.156Z,12.89
2022-09-26T08:36:29.731Z,13.01
2022-09-26T08:39:36.536Z,13.04
2022-09-26T08:43:10.508Z,13.07
2022-09-26T08:46:51.101Z,13.18
2022-09-26T08:50:22.460Z,13.24
2022-09-26T08:53:30.867Z,13.27
2022-09-26T08:56:58.187Z,13.37
2022-09-26T09:00:13.754Z,13.42
2022-09-26T09:03:27.504Z,13.52
2022-09-26T09:06:33.602Z,13.56
2022-09-26T09:09:38.089Z,13.68
2022-09-26T09:13:27.538Z,13.53
2022-09-26T09:17:17.922Z,13.67
2022-09-26T09:20:58.948Z,13.58
2022-09-26T09:24:40.111Z,13.63
2022-09-26T09:28:04.010Z,13.57
2022-09-26T09:31:14.812Z,13.58
2022-09-26T09:34:43.585Z,13.65
2022-09-26T09:38:18.161Z,13.71
2022-09-26T09:41:48.819Z,13.63
2022-09-26T09:44:59.217Z,13.76
2022-09-26T09:48:03.610Z,13.70
2022-09-26T09:51:22.231Z,13.86
2022-09-26T09:54:40.373Z,13.93
2022-09-26T09:58:16.927Z,14.02
2022-09-26T10:01:28.207Z,14.00
2022-09-26T10:04:40.851Z,14.03
2022-09-26T10:07:47.162Z,14.10
2022-09-26T10:11:39.414Z,14.03
2022-09-26T10:15:06.710Z,13.99
2022-09-26T10:19:04.138Z,14.01
2022-09-26T10:22:25.222Z,14.07
2022-09-26T10:25:31.563Z,14.06
2022-09-26T10:28:44.938Z,14.07
2022-09-26T10:31:56.541Z,14.17
2022-09-26T10:35:19.779Z,14.20
2022-09-26T10:38:27.858Z,14.03
2022-09-26T10:41:50.984Z,13.80
2022-09-26T10:44:58.021Z,13.91
2022-09-26T10:48:22.098Z,13.96
2022-09-26T10:51:48.472Z,13.99
2022-09-26T10:54:59.627Z,14.10
2022-09-26T10:58:12.994Z,14.14
2022-09-26T11:01:23.355Z,14.18
2022-09-26T11:04:48.739Z,14.16
2022-09-26T11:08:15.066Z,14.13
2022-09-26T11:11:43.318Z,14.02
2022-09-26T11:14:53.134Z,14.09
2022-09-26T11:17:58.633Z,14.05
2022-09-26T11:21:27.855Z,13.85
2022-09-26T11:24:46.008Z,13.90
2022-09-26T11:27:54.916Z,13.92
2022-09-26T11:31:23.680Z,13.86
2022-09-26T11:34:41.610Z,13.99
2022-09-26T11:38:09.517Z,14.08
2022-09-26T11:41:45.210Z,14.09
2022-09-26T11:44:58.567Z,14.10
2022-09-26T11:49:03.578Z,14.05
2022-09-26T11:52:41.174Z,14.08
2022-09-26T11:56:04.405Z,14.09
2022-09-26T11:59:48.975Z,14.08
2022-09-26T12:03:47.290Z,14.12
2022-09-26T12:06:57.139Z,14.18
2022-09-26T12:10:20.311Z,14.18
2022-09-26T12:13:34.373Z,14.24
2022-09-26T12:16:48.109Z,14.31
2022-09-26T12:19:58.726Z,14.14
2022-09-26T12:23:11.722Z,14.35
2022-09-26T12:26:21.275Z,14.31
2022-09-26T12:29:37.346Z,14.33
2022-09-26T12:33:04.643Z,14.26
2022-09-26T12:36:18.918Z,14.24
2022-09-26T12:39:45.543Z,14.28
2022-09-26T12:43:23.475Z,14.33
2022-09-26T12:47:04.854Z,14.25
2022-09-26T12:50:24.126Z,14.28
2022-09-26T12:53:59.735Z,14.31
2022-09-26T12:57:13.303Z,14.39
2022-09-26T13:00:21.666Z,14.41
2022-09-26T13:03:55.491Z,14.31
2022-09-26T13:07:19.380Z,14.30
2022-09-26T13:10:34.978Z,14.31
2022-09-26T13:14:10.713Z,14.48
2022-09-26T13:17:18.664Z,14.53
2022-09-26T13:20:28.554Z,14.41
2022-09-26T13:23:37.044Z,14.54
2022-09-26T13:26:45.314Z,14.53
2022-09-26T13:29:58.250Z,14.54
2022-09-26T13:33:07.078Z,14.59
2022-09-26T13:36:13.673Z,14.75
2022-09-26T13:39:25.579Z,14.73
2022-09-26T13:42:37.571Z,14.70
2022-09-26T13:45:58.605Z,14.73
2022-09-26T13:49:18.068Z,14.81
2022-09-26T13:52:52.902Z,14.90
2022-09-26T13:56:49.999Z,14.92
2022-09-26T13:59:54.895Z,14.84
2022-09-26T14:03:48.071Z,14.93
2022-09-26T14:07:33.238Z,14.89
2022-09-26T14:10:40.077Z,14.82
2022-09-26T14:13:44.367Z,14.80
2022-09-26T14:16:49.522Z,14.82
2022-09-26T14:19:56.305Z,14.85
2022-09-26T14:23:03.217Z,14.89
2022-09-26T14:26:10.706Z,14.83
2022-09-26T14:29:31.652Z,14.79
2022-09-26T14:32:39.577Z,14.72
2022-09-26T14:35:45.047Z,14.74
2022-09-26T14:38:50.420Z,14.66
2022-09-26T14:41:55.226Z,14.70
2022-09-26T14:45:01.751Z,14.63
2022-09-26T14:48:10.069Z,14.66
2022-09-26T14:51:29.873Z,14.68
2022-09-26T14:54:40.385Z,14.63
2022-09-26T14:57:44.795Z,14.63
2022-09-26T15:00:50.478Z,14.59
2022-09-26T15:04:02.039Z,14.75
2022-09-26T15:07:17.382Z,14.79
2022-09-26T15:10:40.287Z,14.71
2022-09-26T15:13:46.479Z,14.61
2022-09-26T15:16:53.820Z,14.56
2022-09-26T15:20:01.097Z,14.56
2022-09-26T15:23:19.551Z,14.56
2022-09-26T15:26:27.204Z,14.48
2022-09-26T15:29:31.274Z,14.37
2022-09-26T15:32:36.926Z,14.39
2022-09-26T15:35:41.482Z,14.33
2022-09-26T15:38:47.613Z,14.31
2022-09-26T15:42:08.842Z,14.31
2022-09-26T15:45:27.185Z,14.22
2022-09-26T15:48:33.418Z,14.32
2022-09-26T15:51:39.300Z,14.27
2022-09-26T15:54:44.770Z,14.17
2022-09-26T15:57:53.044Z,14.25
2022-09-26T16:01:00.376Z,14.17
2022-09-26T16:04:06.195Z,14.17
2022-09-26T16:07:20.670Z,14.11
2022-09-26T16:10:31.544Z,14.00
2022-09-26T16:13:39.614Z,14.05
2022-09-26T16:16:44.857Z,14.05
2022-09-26T16:19:51.499Z,14.00
2022-09-26T16:23:00.417Z,14.03
2022-09-26T16:26:30.185Z,14.01
2022-09-26T16:29:36.867Z,13.97
2022-09-26T16:32:40.979Z,13.94
2022-09-26T16:35:48.032Z,13.93
2022-09-26T16:38:58.461Z,13.91
2022-09-26T16:42:05.977Z,13.91
2022-09-26T16:45:15.599Z,13.80
2022-09-26T16:48:45.669Z,13.84
2022-09-26T16:52:13.167Z,13.77
2022-09-26T16:55:17.426Z,13.75
2022-09-26T16:58:25.928Z,13.77
2022-09-26T17:01:48.057Z,13.78
2022-09-26T17:04:53.638Z,13.82
2022-09-26T17:07:57.736Z,13.83
2022-09-26T17:11:04.316Z,13.75
2022-09-26T17:14:16.381Z,13.70
2022-09-26T17:17:25.329Z,13.78
2022-09-26T17:20:29.870Z,13.75
2022-09-26T17:23:40.653Z,13.73
2022-09-26T17:26:53.327Z,13.69
2022-09-26T17:30:01.939Z,13.66
2022-09-26T17:33:06.943Z,13.55
2022-09-26T17:36:21.208Z,13.66
2022-09-26T17:39:26.674Z,13.60
2022-09-26T17:42:30.839Z,13.63
2022-09-26T17:45:39.518Z,13.51
2022-09-26T17:48:43.782Z,13.54
2022-09-26T17:51:47.822Z,13.42
2022-09-26T17:54:55.832Z,13.43
2022-09-26T17:58:00.354Z,13.55
2022-09-26T18:01:06.496Z,13.57
2022-09-26T18:04:17.856Z,13.54
2022-09-26T18:07:22.584Z,13.52
2022-09-26T18:10:30.502Z,13.57
2022-09-26T18:13:37.883Z,13.48
2022-09-26T18:16:44.744Z,13.52
2022-09-26T18:19:50.692Z,13.51
2022-09-26T18:22:55.054Z,13.49
2022-09-26T18:26:00.213Z,13.51
2022-09-26T18:29:07.664Z,13.55
2022-09-26T18:32:23.035Z,13.56
2022-09-26T18:35:28.234Z,13.42
2022-09-26T18:38:32.354Z,13.46
2022-09-26T18:41:36.564Z,13.38
2022-09-26T18:44:43.126Z,13.44
2022-09-26T18:47:49.322Z,13.43
2022-09-26T18:50:54.098Z,13.44
2022-09-26T18:53:58.286Z,13.45
2022-09-26T18:57:20.315Z,13.42
2022-09-26T19:00:25.061Z,13.23
2022-09-26T19:03:33.236Z,13.38
2022-09-26T19:06:39.053Z,13.37
2022-09-26T19:09:43.315Z,13.29
2022-09-26T19:12:48.391Z,13.34
2022-09-26T19:15:52.687Z,13.37
2022-09-26T19:18:58.233Z,13.36
2022-09-26T19:22:08.169Z,13.39
2022-09-26T19:25:12.241Z,13.36
2022-09-26T19:28:22.762Z,13.34
2022-09-26T19:31:27.863Z,13.37
2022-09-26T19:34:33.993Z,13.34
2022-09-26T19:37:38.521Z,13.31
2022-09-26T19:40:47.735Z,13.26
2022-09-26T19:43:52.885Z,13.19
2022-09-26T19:46:59.778Z,13.21
2022-09-26T19:50:06.588Z,13.10
2022-09-26T19:53:15.269Z,13.16
2022-09-26T19:56:19.473Z,13.15
2022-09-26T19:59:27.528Z,13.16
2022-09-26T20:02:33.456Z,13.11
2022-09-26T20:05:39.754Z,13.13
2022-09-26T20:08:44.550Z,13.09
2022-09-26T20:12:08.859Z,13.07
2022-09-26T20:15:14.123Z,13.03
2022-09-26T20:18:20.749Z,13.06
2022-09-26T20:21:29.205Z,13.06
2022-09-26T20:24:34.792Z,13.05
2022-09-26T20:27:39.041Z,13.02
2022-09-26T20:30:52.758Z,12.98
2022-09-26T20:34:00.083Z,12.99
2022-09-26T20:37:06.395Z,13.06
2022-09-26T20:40:17.639Z,13.04
2022-09-26T20:43:28.119Z,13.07
2022-09-26T20:46:35.275Z,13.10
2022-09-26T20:49:44.917Z,13.07
2022-09-26T20:52:50.630Z,13.08
2022-09-26T20:55:55.740Z,13.06
2022-09-26T20:58:59.782Z,13.11
2022-09-26T21:02:22.614Z,13.09
2022-09-26T21:05:28.270Z,13.13
2022-09-26T21:08:33.730Z,13.10
2022-09-26T21:11:38.192Z,13.08
2022-09-26T21:14:42.795Z,13.06
2022-09-26T21:17:47.599Z,13.14
2022-09-26T21:20:52.541Z,13.12
2022-09-26T21:24:34.987Z,13.12
2022-09-26T21:27:39.406Z,13.10
2022-09-26T21:30:44.297Z,13.10
2022-09-26T21:33:49.202Z,13.09
2022-09-26T21:36:55.599Z,13.05
2022-09-26T21:40:01.621Z,13.09
2022-09-26T21:43:12.132Z,13.07
2022-09-26T21:46:17.458Z,13.09
2022-09-26T21:49:21.582Z,13.05
2022-09-26T21:52:32.006Z,13.03
2022-09-26T21:55:39.810Z,13.03
2022-09-26T21:58:44.747Z,13.03
2022-09-26T22:01:49.125Z,12.98
2022-09-26T22:04:53.666Z,12.94
2022-09-26T22:07:58.478Z,12.91
2022-09-26T22:11:04.566Z,12.93
2022-09-26T22:14:08.818Z,12.86
2022-09-26T22:17:13.131Z,12.86
2022-09-26T22:20:17.771Z,12.92
2022-09-26T22:23:21.947Z,12.90
2022-09-26T22:26:27.672Z,12.85
2022-09-26T22:29:32.641Z,12.84
2022-09-26T22:32:36.943Z,12.81
2022-09-26T22:35:41.129Z,12.80
2022-09-26T22:38:45.211Z,12.87
2022-09-26T22:41:50.748Z,12.89
2022-09-26T22:44:54.891Z,12.91
2022-09-26T22:47:59.721Z,12.90
2022-09-26T22:51:04.020Z,12.84
2022-09-26T22:54:08.574Z,12.84
2022-09-26T22:57:16.629Z,12.80
2022-09-26T23:00:20.852Z,12.78
2022-09-26T23:03:25.138Z,12.78
2022-09-26T23:06:29.795Z,12.86
2022-09-26T23:09:34.071Z,12.77
2022-09-26T23:12:42.142Z,12.84
2022-09-26T23:15:47.262Z,12.86
2022-09-26T23:18:52.302Z,12.87
2022-09-26T23:21:58.111Z,12.87
2022-09-26T23:25:02.203Z,12.90
2022-09-26T23:28:08.238Z,12.91
2022-09-26T23:31:13.268Z,12.96
2022-09-26T23:34:18.013Z,12.97
2022-09-26T23:37:22.091Z,12.94
2022-09-26T23:40:26.485Z,12.89
2022-09-26T23:43:32.131Z,12.90
2022-09-26T23:46:36.625Z,12.82
2022-09-26T23:49:40.910Z,12.81
2022-09-26T23:52:45.022Z,12.81
2022-09-26T23:55:49.401Z,12.80
2022-09-26T23:58:57.460Z,12.79
